sensor_id;sensor_type;location;lat;lon;timestamp;P1;durP1;ratioP1;P2;durP2;ratioP2
54831;SDS011;40730;53.068;6.572;2022-12-10T00:01:42;91.45;;;33.20;;
54831;SDS011;40730;53.068;6.572;2022-12-10T00:04:09;87.88;;;31.98;;
54831;SDS011;40730;53.068;6.572;2022-12-10T00:06:36;92.57;;;33.33;;
54831;SDS011;40730;53.068;6.572;2022-12-10T00:09:04;80.53;;;33.78;;
54831;SDS011;40730;53.068;6.572;2022-12-10T00:11:30;83.18;;;32.28;;
54831;SDS011;40730;53.068;6.572;2022-12-10T00:13:57;81.47;;;32.25;;
54831;SDS011;40730;53.068;6.572;2022-12-10T00:16:24;87.68;;;31.70;;
54831;SDS011;40730;53.068;6.572;2022-12-10T00:18:50;79.60;;;31.75;;
54831;SDS011;40730;53.068;6.572;2022-12-10T00:21:18;90.63;;;34.00;;
54831;SDS011;40730;53.068;6.572;2022-12-10T00:23:45;91.22;;;33.65;;
54831;SDS011;40730;53.068;6.572;2022-12-10T00:28:39;88.10;;;32.47;;
54831;SDS011;40730;53.068;6.572;2022-12-10T00:31:07;82.82;;;34.10;;
54831;SDS011;40730;53.068;6.572;2022-12-10T00:33:34;88.30;;;33.13;;
54831;SDS011;40730;53.068;6.572;2022-12-10T00:36:06;87.88;;;34.28;;
54831;SDS011;40730;53.068;6.572;2022-12-10T00:38:33;83.22;;;33.42;;
54831;SDS011;40730;53.068;6.572;2022-12-10T00:40:59;92.03;;;35.83;;
54831;SDS011;40730;53.068;6.572;2022-12-10T00:43:25;91.25;;;33.33;;
54831;SDS011;40730;53.068;6.572;2022-12-10T00:45:52;82.57;;;33.08;;
54831;SDS011;40730;53.068;6.572;2022-12-10T00:48:18;83.35;;;32.67;;
54831;SDS011;40730;53.068;6.572;2022-12-10T00:50:43;79.72;;;31.00;;
54831;SDS011;40730;53.068;6.572;2022-12-10T00:53:09;88.32;;;34.33;;
54831;SDS011;40730;53.068;6.572;2022-12-10T00:55:35;83.68;;;32.03;;
54831;SDS011;40730;53.068;6.572;2022-12-10T00:58:00;89.30;;;32.35;;
54831;SDS011;40730;53.068;6.572;2022-12-10T01:00:26;80.82;;;34.78;;
54831;SDS011;40730;53.068;6.572;2022-12-10T01:02:51;92.13;;;34.38;;
54831;SDS011;40730;53.068;6.572;2022-12-10T01:05:18;86.82;;;32.75;;
54831;SDS011;40730;53.068;6.572;2022-12-10T01:07:44;98.03;;;37.53;;
54831;SDS011;40730;53.068;6.572;2022-12-10T01:10:09;102.18;;;35.58;;
54831;SDS011;40730;53.068;6.572;2022-12-10T01:12:35;87.63;;;32.17;;
54831;SDS011;40730;53.068;6.572;2022-12-10T01:15:00;103.75;;;36.60;;
54831;SDS011;40730;53.068;6.572;2022-12-10T01:17:26;95.68;;;36.70;;
54831;SDS011;40730;53.068;6.572;2022-12-10T01:19:52;95.00;;;34.88;;
54831;SDS011;40730;53.068;6.572;2022-12-10T01:22:17;98.05;;;35.13;;
54831;SDS011;40730;53.068;6.572;2022-12-10T01:24:43;97.40;;;36.03;;
54831;SDS011;40730;53.068;6.572;2022-12-10T01:27:08;97.70;;;35.15;;
54831;SDS011;40730;53.068;6.572;2022-12-10T01:29:34;92.43;;;35.25;;
54831;SDS011;40730;53.068;6.572;2022-12-10T01:31:59;106.90;;;37.80;;
54831;SDS011;40730;53.068;6.572;2022-12-10T01:34:25;100.85;;;36.10;;
54831;SDS011;40730;53.068;6.572;2022-12-10T01:36:52;100.68;;;35.15;;
54831;SDS011;40730;53.068;6.572;2022-12-10T01:39:19;110.00;;;37.05;;
54831;SDS011;40730;53.068;6.572;2022-12-10T01:41:48;110.20;;;39.55;;
54831;SDS011;40730;53.068;6.572;2022-12-10T01:46:40;99.85;;;35.85;;
54831;SDS011;40730;53.068;6.572;2022-12-10T01:49:09;102.03;;;37.20;;
54831;SDS011;40730;53.068;6.572;2022-12-10T01:51:36;102.30;;;38.60;;
54831;SDS011;40730;53.068;6.572;2022-12-10T01:54:04;111.80;;;37.95;;
54831;SDS011;40730;53.068;6.572;2022-12-10T01:56:34;105.30;;;37.67;;
54831;SDS011;40730;53.068;6.572;2022-12-10T01:59:02;115.15;;;42.33;;
54831;SDS011;40730;53.068;6.572;2022-12-10T02:07:32;94.45;;;35.97;;
54831;SDS011;40730;53.068;6.572;2022-12-10T02:13:21;105.95;;;37.15;;
54831;SDS011;40730;53.068;6.572;2022-12-10T02:18:28;115.10;;;38.20;;
54831;SDS011;40730;53.068;6.572;2022-12-10T02:21:03;107.80;;;39.15;;
54831;SDS011;40730;53.068;6.572;2022-12-10T02:23:39;108.00;;;35.92;;
54831;SDS011;40730;53.068;6.572;2022-12-10T02:29:05;108.70;;;38.72;;
54831;SDS011;40730;53.068;6.572;2022-12-10T02:31:32;122.13;;;42.80;;
54831;SDS011;40730;53.068;6.572;2022-12-10T02:33:59;121.65;;;40.13;;
54831;SDS011;40730;53.068;6.572;2022-12-10T02:36:28;111.68;;;41.13;;
54831;SDS011;40730;53.068;6.572;2022-12-10T02:38:57;105.05;;;39.08;;
54831;SDS011;40730;53.068;6.572;2022-12-10T02:41:28;122.57;;;41.78;;
54831;SDS011;40730;53.068;6.572;2022-12-10T02:43:59;120.30;;;40.85;;
54831;SDS011;40730;53.068;6.572;2022-12-10T02:46:29;119.78;;;41.63;;
54831;SDS011;40730;53.068;6.572;2022-12-10T02:48:57;107.93;;;40.15;;
54831;SDS011;40730;53.068;6.572;2022-12-10T02:51:25;104.82;;;40.78;;
54831;SDS011;40730;53.068;6.572;2022-12-10T02:53:58;124.80;;;41.88;;
54831;SDS011;40730;53.068;6.572;2022-12-10T02:56:33;113.85;;;41.58;;
54831;SDS011;40730;53.068;6.572;2022-12-10T02:59:07;107.53;;;38.72;;
54831;SDS011;40730;53.068;6.572;2022-12-10T03:01:52;117.47;;;42.60;;
54831;SDS011;40730;53.068;6.572;2022-12-10T03:07:10;118.57;;;39.92;;
54831;SDS011;40730;53.068;6.572;2022-12-10T03:09:48;124.00;;;40.50;;
54831;SDS011;40730;53.068;6.572;2022-12-10T03:12:31;123.18;;;42.95;;
54831;SDS011;40730;53.068;6.572;2022-12-10T03:15:04;118.18;;;41.70;;
54831;SDS011;40730;53.068;6.572;2022-12-10T03:17:32;129.40;;;45.38;;
54831;SDS011;40730;53.068;6.572;2022-12-10T03:19:59;118.00;;;42.55;;
54831;SDS011;40730;53.068;6.572;2022-12-10T03:22:26;121.88;;;43.95;;
54831;SDS011;40730;53.068;6.572;2022-12-10T03:24:54;119.43;;;42.42;;
54831;SDS011;40730;53.068;6.572;2022-12-10T03:27:22;121.18;;;44.08;;
54831;SDS011;40730;53.068;6.572;2022-12-10T03:29:50;129.30;;;43.63;;
54831;SDS011;40730;53.068;6.572;2022-12-10T03:32:18;127.53;;;43.88;;
54831;SDS011;40730;53.068;6.572;2022-12-10T03:34:50;131.63;;;44.47;;
54831;SDS011;40730;53.068;6.572;2022-12-10T03:37:17;126.85;;;41.30;;
54831;SDS011;40730;53.068;6.572;2022-12-10T03:39:43;117.57;;;41.53;;
54831;SDS011;40730;53.068;6.572;2022-12-10T03:42:09;125.15;;;43.83;;
54831;SDS011;40730;53.068;6.572;2022-12-10T03:44:36;124.38;;;43.30;;
54831;SDS011;40730;53.068;6.572;2022-12-10T03:47:04;131.32;;;43.30;;
54831;SDS011;40730;53.068;6.572;2022-12-10T03:49:31;128.75;;;41.83;;
54831;SDS011;40730;53.068;6.572;2022-12-10T03:51:56;136.18;;;45.40;;
54831;SDS011;40730;53.068;6.572;2022-12-10T03:54:22;131.68;;;41.63;;
54831;SDS011;40730;53.068;6.572;2022-12-10T03:56:48;133.35;;;45.15;;
54831;SDS011;40730;53.068;6.572;2022-12-10T03:59:13;125.72;;;42.83;;
54831;SDS011;40730;53.068;6.572;2022-12-10T04:01:40;135.30;;;44.38;;
54831;SDS011;40730;53.068;6.572;2022-12-10T04:04:06;137.63;;;43.33;;
54831;SDS011;40730;53.068;6.572;2022-12-10T04:06:32;137.40;;;42.42;;
54831;SDS011;40730;53.068;6.572;2022-12-10T04:08:57;135.55;;;43.97;;
54831;SDS011;40730;53.068;6.572;2022-12-10T04:11:23;137.65;;;43.92;;
54831;SDS011;40730;53.068;6.572;2022-12-10T04:13:50;135.00;;;40.30;;
54831;SDS011;40730;53.068;6.572;2022-12-10T04:16:35;144.05;;;44.90;;
54831;SDS011;40730;53.068;6.572;2022-12-10T04:19:05;133.55;;;43.55;;
54831;SDS011;40730;53.068;6.572;2022-12-10T04:21:33;134.90;;;42.20;;
54831;SDS011;40730;53.068;6.572;2022-12-10T04:24:19;135.18;;;42.30;;
54831;SDS011;40730;53.068;6.572;2022-12-10T04:27:09;135.35;;;42.22;;
54831;SDS011;40730;53.068;6.572;2022-12-10T04:29:37;133.70;;;43.15;;
54831;SDS011;40730;53.068;6.572;2022-12-10T04:32:03;136.98;;;43.75;;
54831;SDS011;40730;53.068;6.572;2022-12-10T04:34:29;142.82;;;44.78;;
54831;SDS011;40730;53.068;6.572;2022-12-10T04:36:54;142.40;;;44.10;;
54831;SDS011;40730;53.068;6.572;2022-12-10T04:39:22;139.30;;;45.22;;
54831;SDS011;40730;53.068;6.572;2022-12-10T04:41:48;138.55;;;43.28;;
54831;SDS011;40730;53.068;6.572;2022-12-10T04:44:15;147.07;;;47.72;;
54831;SDS011;40730;53.068;6.572;2022-12-10T04:46:41;147.65;;;44.42;;
54831;SDS011;40730;53.068;6.572;2022-12-10T04:49:06;152.52;;;46.20;;
54831;SDS011;40730;53.068;6.572;2022-12-10T04:51:32;138.35;;;43.95;;
54831;SDS011;40730;53.068;6.572;2022-12-10T04:53:58;137.60;;;43.10;;
54831;SDS011;40730;53.068;6.572;2022-12-10T04:56:24;134.20;;;42.63;;
54831;SDS011;40730;53.068;6.572;2022-12-10T04:58:50;138.13;;;43.88;;
54831;SDS011;40730;53.068;6.572;2022-12-10T05:01:16;127.10;;;41.38;;
54831;SDS011;40730;53.068;6.572;2022-12-10T05:03:43;127.75;;;41.63;;
54831;SDS011;40730;53.068;6.572;2022-12-10T05:06:12;126.63;;;41.03;;
54831;SDS011;40730;53.068;6.572;2022-12-10T05:08:40;126.30;;;42.67;;
54831;SDS011;40730;53.068;6.572;2022-12-10T05:11:09;136.75;;;43.03;;
54831;SDS011;40730;53.068;6.572;2022-12-10T05:13:37;132.65;;;40.20;;
54831;SDS011;40730;53.068;6.572;2022-12-10T05:16:04;136.07;;;44.65;;
54831;SDS011;40730;53.068;6.572;2022-12-10T05:18:32;135.38;;;41.80;;
54831;SDS011;40730;53.068;6.572;2022-12-10T05:20:58;126.65;;;41.90;;
54831;SDS011;40730;53.068;6.572;2022-12-10T05:23:25;141.25;;;43.80;;
54831;SDS011;40730;53.068;6.572;2022-12-10T05:28:42;153.65;;;45.72;;
54831;SDS011;40730;53.068;6.572;2022-12-10T05:31:13;146.15;;;43.00;;
54831;SDS011;40730;53.068;6.572;2022-12-10T05:33:40;151.93;;;44.88;;
54831;SDS011;40730;53.068;6.572;2022-12-10T05:36:06;150.38;;;46.95;;
54831;SDS011;40730;53.068;6.572;2022-12-10T05:38:34;160.98;;;47.00;;
54831;SDS011;40730;53.068;6.572;2022-12-10T05:41:00;157.85;;;47.83;;
54831;SDS011;40730;53.068;6.572;2022-12-10T05:43:27;160.13;;;46.50;;
54831;SDS011;40730;53.068;6.572;2022-12-10T05:45:53;156.63;;;46.10;;
54831;SDS011;40730;53.068;6.572;2022-12-10T05:48:19;150.18;;;44.95;;
54831;SDS011;40730;53.068;6.572;2022-12-10T05:50:45;147.13;;;44.25;;
54831;SDS011;40730;53.068;6.572;2022-12-10T05:53:10;154.27;;;44.60;;
54831;SDS011;40730;53.068;6.572;2022-12-10T05:55:38;155.52;;;47.92;;
54831;SDS011;40730;53.068;6.572;2022-12-10T05:58:04;152.95;;;49.17;;
54831;SDS011;40730;53.068;6.572;2022-12-10T06:00:30;159.98;;;47.03;;
54831;SDS011;40730;53.068;6.572;2022-12-10T06:02:55;162.40;;;46.97;;
54831;SDS011;40730;53.068;6.572;2022-12-10T06:05:21;187.88;;;51.05;;
54831;SDS011;40730;53.068;6.572;2022-12-10T06:07:47;157.13;;;48.95;;
54831;SDS011;40730;53.068;6.572;2022-12-10T06:10:12;184.48;;;49.92;;
54831;SDS011;40730;53.068;6.572;2022-12-10T06:12:38;161.35;;;44.95;;
54831;SDS011;40730;53.068;6.572;2022-12-10T06:15:04;186.82;;;53.13;;
54831;SDS011;40730;53.068;6.572;2022-12-10T06:17:30;188.77;;;52.17;;
54831;SDS011;40730;53.068;6.572;2022-12-10T06:19:56;182.30;;;47.03;;
54831;SDS011;40730;53.068;6.572;2022-12-10T06:22:22;204.43;;;55.92;;
54831;SDS011;40730;53.068;6.572;2022-12-10T06:24:47;215.13;;;54.08;;
54831;SDS011;40730;53.068;6.572;2022-12-10T06:27:13;214.77;;;53.30;;
54831;SDS011;40730;53.068;6.572;2022-12-10T06:29:39;198.63;;;51.03;;
54831;SDS011;40730;53.068;6.572;2022-12-10T06:32:05;234.15;;;54.08;;
54831;SDS011;40730;53.068;6.572;2022-12-10T06:34:30;206.70;;;52.35;;
54831;SDS011;40730;53.068;6.572;2022-12-10T06:36:56;214.55;;;52.15;;
54831;SDS011;40730;53.068;6.572;2022-12-10T06:39:22;237.55;;;53.88;;
54831;SDS011;40730;53.068;6.572;2022-12-10T06:41:47;273.98;;;52.17;;
54831;SDS011;40730;53.068;6.572;2022-12-10T06:44:13;266.83;;;53.70;;
54831;SDS011;40730;53.068;6.572;2022-12-10T06:46:41;249.57;;;53.35;;
54831;SDS011;40730;53.068;6.572;2022-12-10T06:49:07;300.00;;;56.67;;
54831;SDS011;40730;53.068;6.572;2022-12-10T06:51:33;336.17;;;53.92;;
54831;SDS011;40730;53.068;6.572;2022-12-10T06:53:59;242.45;;;53.55;;
54831;SDS011;40730;53.068;6.572;2022-12-10T06:56:24;309.70;;;56.10;;
54831;SDS011;40730;53.068;6.572;2022-12-10T06:58:50;302.08;;;56.28;;
54831;SDS011;40730;53.068;6.572;2022-12-10T07:01:23;299.27;;;57.92;;
54831;SDS011;40730;53.068;6.572;2022-12-10T07:03:53;308.38;;;58.65;;
54831;SDS011;40730;53.068;6.572;2022-12-10T07:06:20;261.50;;;53.97;;
54831;SDS011;40730;53.068;6.572;2022-12-10T07:08:48;277.23;;;55.33;;
54831;SDS011;40730;53.068;6.572;2022-12-10T07:11:15;242.55;;;56.92;;
54831;SDS011;40730;53.068;6.572;2022-12-10T07:13:42;297.15;;;59.10;;
54831;SDS011;40730;53.068;6.572;2022-12-10T07:16:12;289.08;;;57.42;;
54831;SDS011;40730;53.068;6.572;2022-12-10T07:18:43;486.60;;;73.65;;
54831;SDS011;40730;53.068;6.572;2022-12-10T07:21:19;288.35;;;54.45;;
54831;SDS011;40730;53.068;6.572;2022-12-10T07:23:45;245.00;;;54.92;;
54831;SDS011;40730;53.068;6.572;2022-12-10T07:26:11;259.00;;;51.72;;
54831;SDS011;40730;53.068;6.572;2022-12-10T07:28:37;287.17;;;56.67;;
54831;SDS011;40730;53.068;6.572;2022-12-10T07:31:03;296.02;;;56.55;;
54831;SDS011;40730;53.068;6.572;2022-12-10T07:33:29;338.23;;;61.88;;
54831;SDS011;40730;53.068;6.572;2022-12-10T07:35:55;321.65;;;57.20;;
54831;SDS011;40730;53.068;6.572;2022-12-10T07:38:22;461.67;;;64.15;;
54831;SDS011;40730;53.068;6.572;2022-12-10T07:40:49;336.23;;;56.55;;
54831;SDS011;40730;53.068;6.572;2022-12-10T07:43:15;285.50;;;50.15;;
54831;SDS011;40730;53.068;6.572;2022-12-10T07:45:41;286.52;;;58.47;;
54831;SDS011;40730;53.068;6.572;2022-12-10T07:48:07;381.88;;;58.78;;
54831;SDS011;40730;53.068;6.572;2022-12-10T07:50:32;580.58;;;72.35;;
54831;SDS011;40730;53.068;6.572;2022-12-10T07:52:58;370.67;;;55.67;;
54831;SDS011;40730;53.068;6.572;2022-12-10T07:55:24;274.55;;;57.13;;
54831;SDS011;40730;53.068;6.572;2022-12-10T07:57:49;293.40;;;55.13;;
54831;SDS011;40730;53.068;6.572;2022-12-10T08:00:15;429.00;;;65.05;;
54831;SDS011;40730;53.068;6.572;2022-12-10T08:02:41;348.73;;;59.75;;
54831;SDS011;40730;53.068;6.572;2022-12-10T08:05:06;306.77;;;57.17;;
54831;SDS011;40730;53.068;6.572;2022-12-10T08:07:32;263.95;;;53.72;;
54831;SDS011;40730;53.068;6.572;2022-12-10T08:09:58;359.65;;;59.05;;
54831;SDS011;40730;53.068;6.572;2022-12-10T08:12:24;421.75;;;66.30;;
54831;SDS011;40730;53.068;6.572;2022-12-10T08:14:50;285.50;;;57.67;;
54831;SDS011;40730;53.068;6.572;2022-12-10T08:17:15;237.90;;;56.45;;
54831;SDS011;40730;53.068;6.572;2022-12-10T08:19:41;271.52;;;59.97;;
54831;SDS011;40730;53.068;6.572;2022-12-10T08:22:06;270.80;;;56.22;;
54831;SDS011;40730;53.068;6.572;2022-12-10T08:24:32;259.70;;;54.70;;
54831;SDS011;40730;53.068;6.572;2022-12-10T08:26:58;334.92;;;63.55;;
54831;SDS011;40730;53.068;6.572;2022-12-10T08:29:23;269.10;;;58.90;;
54831;SDS011;40730;53.068;6.572;2022-12-10T08:31:49;271.13;;;60.67;;
54831;SDS011;40730;53.068;6.572;2022-12-10T08:34:15;421.25;;;70.82;;
54831;SDS011;40730;53.068;6.572;2022-12-10T08:36:42;226.63;;;54.85;;
54831;SDS011;40730;53.068;6.572;2022-12-10T08:39:09;235.40;;;55.05;;
54831;SDS011;40730;53.068;6.572;2022-12-10T08:41:35;217.70;;;54.10;;
54831;SDS011;40730;53.068;6.572;2022-12-10T08:44:01;248.32;;;54.25;;
54831;SDS011;40730;53.068;6.572;2022-12-10T08:46:27;222.68;;;52.15;;
54831;SDS011;40730;53.068;6.572;2022-12-10T08:48:53;222.48;;;50.80;;
54831;SDS011;40730;53.068;6.572;2022-12-10T08:51:20;207.20;;;52.70;;
54831;SDS011;40730;53.068;6.572;2022-12-10T08:53:46;211.80;;;50.53;;
54831;SDS011;40730;53.068;6.572;2022-12-10T08:56:12;208.18;;;47.10;;
54831;SDS011;40730;53.068;6.572;2022-12-10T08:58:38;211.77;;;52.60;;
54831;SDS011;40730;53.068;6.572;2022-12-10T09:01:11;213.23;;;53.08;;
54831;SDS011;40730;53.068;6.572;2022-12-10T09:03:39;233.57;;;53.90;;
54831;SDS011;40730;53.068;6.572;2022-12-10T09:06:06;207.95;;;52.00;;
54831;SDS011;40730;53.068;6.572;2022-12-10T09:08:36;205.45;;;51.83;;
54831;SDS011;40730;53.068;6.572;2022-12-10T09:11:06;235.10;;;56.17;;
54831;SDS011;40730;53.068;6.572;2022-12-10T09:13:33;272.85;;;54.72;;
54831;SDS011;40730;53.068;6.572;2022-12-10T09:15:59;252.55;;;51.67;;
54831;SDS011;40730;53.068;6.572;2022-12-10T09:18:24;243.00;;;48.75;;
54831;SDS011;40730;53.068;6.572;2022-12-10T09:20:50;255.20;;;55.40;;
54831;SDS011;40730;53.068;6.572;2022-12-10T09:23:15;232.52;;;48.20;;
54831;SDS011;40730;53.068;6.572;2022-12-10T09:25:41;342.45;;;57.92;;
54831;SDS011;40730;53.068;6.572;2022-12-10T09:28:07;241.88;;;52.08;;
54831;SDS011;40730;53.068;6.572;2022-12-10T09:30:33;224.57;;;51.58;;
54831;SDS011;40730;53.068;6.572;2022-12-10T09:32:58;270.42;;;56.47;;
54831;SDS011;40730;53.068;6.572;2022-12-10T09:35:24;247.43;;;56.00;;
54831;SDS011;40730;53.068;6.572;2022-12-10T09:37:50;252.65;;;54.05;;
54831;SDS011;40730;53.068;6.572;2022-12-10T09:40:16;254.52;;;59.38;;
54831;SDS011;40730;53.068;6.572;2022-12-10T09:42:49;219.75;;;53.75;;
54831;SDS011;40730;53.068;6.572;2022-12-10T09:45:32;238.05;;;51.85;;
54831;SDS011;40730;53.068;6.572;2022-12-10T09:48:28;248.38;;;56.05;;
54831;SDS011;40730;53.068;6.572;2022-12-10T09:53:50;252.85;;;57.30;;
54831;SDS011;40730;53.068;6.572;2022-12-10T09:56:24;257.67;;;55.20;;
54831;SDS011;40730;53.068;6.572;2022-12-10T09:58:57;236.32;;;56.47;;
54831;SDS011;40730;53.068;6.572;2022-12-10T10:01:27;236.18;;;54.33;;
54831;SDS011;40730;53.068;6.572;2022-12-10T10:03:56;223.88;;;53.22;;
54831;SDS011;40730;53.068;6.572;2022-12-10T10:06:21;226.82;;;52.10;;
54831;SDS011;40730;53.068;6.572;2022-12-10T10:08:52;234.07;;;57.63;;
54831;SDS011;40730;53.068;6.572;2022-12-10T10:11:24;233.20;;;56.47;;
54831;SDS011;40730;53.068;6.572;2022-12-10T10:14:10;210.73;;;50.83;;
54831;SDS011;40730;53.068;6.572;2022-12-10T10:16:51;205.60;;;53.45;;
54831;SDS011;40730;53.068;6.572;2022-12-10T10:19:24;203.18;;;51.33;;
54831;SDS011;40730;53.068;6.572;2022-12-10T10:21:55;182.75;;;49.70;;
54831;SDS011;40730;53.068;6.572;2022-12-10T10:24:24;192.10;;;49.00;;
54831;SDS011;40730;53.068;6.572;2022-12-10T10:26:59;196.10;;;53.70;;
54831;SDS011;40730;53.068;6.572;2022-12-10T10:29:40;172.50;;;49.72;;
54831;SDS011;40730;53.068;6.572;2022-12-10T10:32:12;204.13;;;53.33;;
54831;SDS011;40730;53.068;6.572;2022-12-10T10:34:47;189.15;;;51.80;;
54831;SDS011;40730;53.068;6.572;2022-12-10T10:37:20;197.85;;;53.33;;
54831;SDS011;40730;53.068;6.572;2022-12-10T10:39:49;202.48;;;52.90;;
54831;SDS011;40730;53.068;6.572;2022-12-10T10:42:21;204.32;;;51.70;;
54831;SDS011;40730;53.068;6.572;2022-12-10T10:44:57;184.27;;;50.58;;
54831;SDS011;40730;53.068;6.572;2022-12-10T10:47:24;209.18;;;53.05;;
54831;SDS011;40730;53.068;6.572;2022-12-10T10:49:50;184.23;;;49.28;;
54831;SDS011;40730;53.068;6.572;2022-12-10T10:52:16;177.68;;;51.25;;
54831;SDS011;40730;53.068;6.572;2022-12-10T10:54:43;198.50;;;47.88;;
54831;SDS011;40730;53.068;6.572;2022-12-10T10:59:44;196.23;;;51.47;;
54831;SDS011;40730;53.068;6.572;2022-12-10T11:02:21;181.65;;;47.70;;
54831;SDS011;40730;53.068;6.572;2022-12-10T11:04:48;180.98;;;47.63;;
54831;SDS011;40730;53.068;6.572;2022-12-10T11:07:16;197.75;;;52.25;;
54831;SDS011;40730;53.068;6.572;2022-12-10T11:10:12;179.32;;;48.35;;
54831;SDS011;40730;53.068;6.572;2022-12-10T11:12:43;184.90;;;49.88;;
54831;SDS011;40730;53.068;6.572;2022-12-10T11:17:50;178.15;;;50.72;;
54831;SDS011;40730;53.068;6.572;2022-12-10T11:20:24;168.27;;;47.08;;
54831;SDS011;40730;53.068;6.572;2022-12-10T11:22:57;192.80;;;49.05;;
54831;SDS011;40730;53.068;6.572;2022-12-10T11:25:35;202.45;;;52.45;;
54831;SDS011;40730;53.068;6.572;2022-12-10T11:39:10;127.53;;;36.80;;
54831;SDS011;40730;53.068;6.572;2022-12-10T11:44:24;125.57;;;38.75;;
54831;SDS011;40730;53.068;6.572;2022-12-10T12:08:48;113.22;;;35.60;;
54831;SDS011;40730;53.068;6.572;2022-12-10T12:11:28;125.90;;;39.67;;
54831;SDS011;40730;53.068;6.572;2022-12-10T12:14:27;126.80;;;39.60;;
54831;SDS011;40730;53.068;6.572;2022-12-10T12:17:10;133.05;;;41.60;;
54831;SDS011;40730;53.068;6.572;2022-12-10T12:24:50;181.40;;;39.30;;
54831;SDS011;40730;53.068;6.572;2022-12-10T12:27:28;110.60;;;33.85;;
54831;SDS011;40730;53.068;6.572;2022-12-10T12:35:44;129.65;;;38.35;;
54831;SDS011;40730;53.068;6.572;2022-12-10T12:46:02;123.85;;;34.67;;
54831;SDS011;40730;53.068;6.572;2022-12-10T12:53:46;124.00;;;36.80;;
54831;SDS011;40730;53.068;6.572;2022-12-10T13:02:11;128.43;;;36.65;;
54831;SDS011;40730;53.068;6.572;2022-12-10T13:04:43;123.28;;;37.22;;
54831;SDS011;40730;53.068;6.572;2022-12-10T13:07:11;119.32;;;35.50;;
54831;SDS011;40730;53.068;6.572;2022-12-10T13:12:31;115.53;;;34.92;;
54831;SDS011;40730;53.068;6.572;2022-12-10T13:18:03;122.18;;;36.63;;
54831;SDS011;40730;53.068;6.572;2022-12-10T13:23:47;125.13;;;37.03;;
54831;SDS011;40730;53.068;6.572;2022-12-10T13:26:24;129.07;;;36.03;;
54831;SDS011;40730;53.068;6.572;2022-12-10T13:28:54;119.15;;;32.80;;
54831;SDS011;40730;53.068;6.572;2022-12-10T13:31:36;116.95;;;35.88;;
54831;SDS011;40730;53.068;6.572;2022-12-10T13:41:38;130.90;;;35.65;;
54831;SDS011;40730;53.068;6.572;2022-12-10T13:47:04;103.68;;;31.48;;
54831;SDS011;40730;53.068;6.572;2022-12-10T13:50:13;98.13;;;32.28;;
54831;SDS011;40730;53.068;6.572;2022-12-10T13:55:49;108.38;;;33.25;;
54831;SDS011;40730;53.068;6.572;2022-12-10T13:58:37;112.93;;;35.20;;
54831;SDS011;40730;53.068;6.572;2022-12-10T14:06:35;117.43;;;35.03;;
54831;SDS011;40730;53.068;6.572;2022-12-10T14:09:11;115.70;;;36.35;;
54831;SDS011;40730;53.068;6.572;2022-12-10T14:11:49;118.25;;;36.08;;
54831;SDS011;40730;53.068;6.572;2022-12-10T14:14:22;114.05;;;34.65;;
54831;SDS011;40730;53.068;6.572;2022-12-10T14:16:59;121.68;;;36.28;;
54831;SDS011;40730;53.068;6.572;2022-12-10T14:19:29;102.85;;;32.13;;
54831;SDS011;40730;53.068;6.572;2022-12-10T14:21:55;129.95;;;36.53;;
54831;SDS011;40730;53.068;6.572;2022-12-10T14:24:40;119.38;;;36.58;;
54831;SDS011;40730;53.068;6.572;2022-12-10T14:27:16;125.32;;;36.40;;
54831;SDS011;40730;53.068;6.572;2022-12-10T14:29:47;143.18;;;36.75;;
54831;SDS011;40730;53.068;6.572;2022-12-10T14:32:14;123.97;;;32.53;;
54831;SDS011;40730;53.068;6.572;2022-12-10T14:34:43;125.25;;;35.00;;
54831;SDS011;40730;53.068;6.572;2022-12-10T14:37:13;124.47;;;35.20;;
54831;SDS011;40730;53.068;6.572;2022-12-10T14:39:39;121.78;;;34.28;;
54831;SDS011;40730;53.068;6.572;2022-12-10T14:42:05;143.48;;;38.40;;
54831;SDS011;40730;53.068;6.572;2022-12-10T14:44:36;127.35;;;35.05;;
54831;SDS011;40730;53.068;6.572;2022-12-10T14:47:17;131.38;;;35.80;;
54831;SDS011;40730;53.068;6.572;2022-12-10T14:49:47;152.50;;;42.08;;
54831;SDS011;40730;53.068;6.572;2022-12-10T14:52:19;157.85;;;43.42;;
54831;SDS011;40730;53.068;6.572;2022-12-10T14:54:46;143.48;;;43.95;;
54831;SDS011;40730;53.068;6.572;2022-12-10T14:57:34;176.57;;;56.08;;
54831;SDS011;40730;53.068;6.572;2022-12-10T15:00:17;145.20;;;36.70;;
54831;SDS011;40730;53.068;6.572;2022-12-10T15:02:48;160.13;;;39.30;;
54831;SDS011;40730;53.068;6.572;2022-12-10T15:05:23;161.30;;;42.38;;
54831;SDS011;40730;53.068;6.572;2022-12-10T15:07:55;179.25;;;39.17;;
54831;SDS011;40730;53.068;6.572;2022-12-10T15:10:25;166.32;;;39.72;;
54831;SDS011;40730;53.068;6.572;2022-12-10T15:12:56;156.60;;;38.25;;
54831;SDS011;40730;53.068;6.572;2022-12-10T15:17:58;155.23;;;38.75;;
54831;SDS011;40730;53.068;6.572;2022-12-10T15:20:29;177.48;;;40.17;;
54831;SDS011;40730;53.068;6.572;2022-12-10T15:28:44;182.90;;;42.78;;
54831;SDS011;40730;53.068;6.572;2022-12-10T15:31:13;189.40;;;42.65;;
54831;SDS011;40730;53.068;6.572;2022-12-10T15:33:52;198.02;;;44.83;;
54831;SDS011;40730;53.068;6.572;2022-12-10T15:36:25;195.57;;;44.47;;
54831;SDS011;40730;53.068;6.572;2022-12-10T15:38:55;200.88;;;46.28;;
54831;SDS011;40730;53.068;6.572;2022-12-10T15:42:04;196.40;;;45.92;;
54831;SDS011;40730;53.068;6.572;2022-12-10T15:44:36;185.40;;;41.58;;
54831;SDS011;40730;53.068;6.572;2022-12-10T15:49:38;236.98;;;45.55;;
54831;SDS011;40730;53.068;6.572;2022-12-10T15:52:04;218.43;;;44.50;;
54831;SDS011;40730;53.068;6.572;2022-12-10T15:54:34;259.58;;;51.15;;
54831;SDS011;40730;53.068;6.572;2022-12-10T15:57:09;234.73;;;49.42;;
54831;SDS011;40730;53.068;6.572;2022-12-10T15:59:57;249.07;;;47.42;;
54831;SDS011;40730;53.068;6.572;2022-12-10T16:05:10;206.25;;;44.65;;
54831;SDS011;40730;53.068;6.572;2022-12-10T16:07:45;266.10;;;47.70;;
54831;SDS011;40730;53.068;6.572;2022-12-10T16:10:13;240.38;;;50.88;;
54831;SDS011;40730;53.068;6.572;2022-12-10T16:12:40;224.13;;;45.05;;
54831;SDS011;40730;53.068;6.572;2022-12-10T16:15:07;228.60;;;47.25;;
54831;SDS011;40730;53.068;6.572;2022-12-10T16:17:36;252.45;;;51.50;;
54831;SDS011;40730;53.068;6.572;2022-12-10T16:20:24;254.80;;;48.65;;
54831;SDS011;40730;53.068;6.572;2022-12-10T16:22:51;238.73;;;47.25;;
54831;SDS011;40730;53.068;6.572;2022-12-10T16:25:21;252.73;;;51.33;;
54831;SDS011;40730;53.068;6.572;2022-12-10T16:27:48;274.17;;;49.22;;
54831;SDS011;40730;53.068;6.572;2022-12-10T16:32:40;216.52;;;40.80;;
54831;SDS011;40730;53.068;6.572;2022-12-10T16:35:06;200.40;;;41.70;;
54831;SDS011;40730;53.068;6.572;2022-12-10T16:37:32;245.52;;;43.40;;
54831;SDS011;40730;53.068;6.572;2022-12-10T16:39:58;231.93;;;46.80;;
54831;SDS011;40730;53.068;6.572;2022-12-10T16:42:23;275.85;;;49.45;;
54831;SDS011;40730;53.068;6.572;2022-12-10T16:44:50;255.40;;;49.55;;
54831;SDS011;40730;53.068;6.572;2022-12-10T16:47:15;301.52;;;48.63;;